CYXC

Cranbrook Airport

Cranbrook, British Columbia, Canada
METAR CYXC 260403Z 23004KT 25SM FEW080 SCT120 BKN180 20/08 A2974 RMK AC1AC3AC3 SLP059 DENSITY ALT 4600FT
Observed Flight Rules
May-26 @ 04:03 UTC (22 minutes ago) Visual Flight Rules
Wind Visibility Clouds
230° at 4 knots 25 miles
  • Few at 8,000' AGL
  • Scattered at 12,000' AGL
  • Broken at 18,000' AGL
Temperatures Readings
Current 20°C / 68°F
Dewpoint 8°C / 46°F
Humidity 46%
Altimeter 29.74" Hg
Pressure 1005.9 hPa
Elevation 939
METAR CYXC 260403Z 23004KT 25SM FEW080 SCT120 BKN180 20/08 A2974 RMK AC1AC3AC3 SLP059 DENSITY ALT 4600FT
Observed Flight Rules
May-26 @ 04:03 UTC
(22 minutes ago)
VFR
Wind Visibility
230° at 4 knots 25 miles
Clouds
  • Few at 8,000' AGL
  • Scattered at 12,000' AGL
  • Broken at 18,000' AGL
Temperature Dewpoint
20°C / 68°F 8°C / 46°F
Humidity Altimeter Pressure
46% 29.74" Hg 1005.9 hPa